createdAt,value
2019-04-07T00:01:38.491Z,99.90
2019-04-07T00:04:08.028Z,99.90
2019-04-07T00:06:37.534Z,99.90
2019-04-07T00:09:07.550Z,99.90
2019-04-07T00:11:38.408Z,99.90
2019-04-07T00:14:08.335Z,99.90
2019-04-07T00:16:39.226Z,99.90
2019-04-07T00:19:08.703Z,99.90
2019-04-07T00:21:39.708Z,99.90
2019-04-07T00:24:09.229Z,99.90
2019-04-07T00:26:40.560Z,99.90
2019-04-07T00:29:10.037Z,99.90
2019-04-07T00:31:39.845Z,99.90
2019-04-07T00:34:09.636Z,99.90
2019-04-07T00:36:40.555Z,99.90
2019-04-07T00:39:10.554Z,99.90
2019-04-07T00:41:41.765Z,99.90
2019-04-07T00:44:11.450Z,99.90
2019-04-07T00:46:42.243Z,99.90
2019-04-07T00:49:13.126Z,99.90
2019-04-07T00:51:44.071Z,99.90
2019-04-07T00:54:13.474Z,99.90
2019-04-07T00:56:44.282Z,99.90
2019-04-07T00:59:14.323Z,99.90
2019-04-07T01:01:43.994Z,99.90
2019-04-07T01:04:13.809Z,99.90
2019-04-07T01:06:44.829Z,99.90
2019-04-07T01:09:14.520Z,99.90
2019-04-07T01:11:44.375Z,99.90
2019-04-07T01:14:13.775Z,99.90
2019-04-07T01:16:45.521Z,99.90
2019-04-07T01:19:15.168Z,99.90
2019-04-07T01:21:44.678Z,99.90
2019-04-07T01:24:14.488Z,99.90
2019-04-07T01:26:45.378Z,99.90
2019-04-07T01:29:14.798Z,99.90
2019-04-07T01:31:44.289Z,99.90
2019-04-07T01:34:13.690Z,99.90
2019-04-07T01:36:43.122Z,99.90
2019-04-07T01:39:12.994Z,99.90
2019-04-07T01:41:58.356Z,99.90
2019-04-07T01:44:29.739Z,99.90
2019-04-07T01:47:21.031Z,99.90
2019-04-07T01:49:52.933Z,99.90
2019-04-07T01:52:27.299Z,99.90
2019-04-07T01:55:07.283Z,99.90
2019-04-07T01:57:56.577Z,99.90
2019-04-07T02:00:28.010Z,99.90
2019-04-07T02:02:59.912Z,99.90
2019-04-07T02:05:58.610Z,99.90
2019-04-07T02:08:25.487Z,99.90
2019-04-07T02:11:08.688Z,99.90
2019-04-07T02:13:58.315Z,99.90
2019-04-07T02:16:35.657Z,99.90
2019-04-07T02:19:23.974Z,99.90
2019-04-07T02:22:05.798Z,99.90
2019-04-07T02:24:49.828Z,99.90
2019-04-07T02:27:30.607Z,99.90
2019-04-07T02:30:17.853Z,99.90
2019-04-07T02:32:51.097Z,99.90
2019-04-07T02:35:40.418Z,99.90
2019-04-07T02:38:17.091Z,99.90
2019-04-07T02:40:54.076Z,99.90
2019-04-07T02:43:31.083Z,99.90
2019-04-07T02:46:06.420Z,99.90
2019-04-07T02:48:54.383Z,99.90
2019-04-07T02:51:38.739Z,99.90
2019-04-07T02:54:15.699Z,99.90
2019-04-07T02:56:54.337Z,99.90
2019-04-07T02:59:29.312Z,99.90
2019-04-07T03:02:18.570Z,99.90
2019-04-07T03:04:58.675Z,99.90
2019-04-07T03:07:44.450Z,99.90
2019-04-07T03:10:31.301Z,99.90
2019-04-07T03:13:18.491Z,99.90
2019-04-07T03:16:07.683Z,99.90
2019-04-07T03:18:39.060Z,99.90
2019-04-07T03:21:19.747Z,99.90
2019-04-07T03:23:53.828Z,99.90
2019-04-07T03:26:42.458Z,99.90
2019-04-07T03:29:14.051Z,99.90
2019-04-07T03:31:51.689Z,99.90
2019-04-07T03:34:26.238Z,99.90
2019-04-07T03:37:27.108Z,99.90
2019-04-07T03:40:00.899Z,99.90
2019-04-07T03:42:39.735Z,99.90
2019-04-07T03:45:27.031Z,99.90
2019-04-07T03:48:07.092Z,99.90
2019-04-07T03:50:59.930Z,99.90
2019-04-07T03:53:45.964Z,99.90
2019-04-07T03:56:17.045Z,99.90
2019-04-07T03:58:53.995Z,99.90
2019-04-07T04:01:43.540Z,99.90
2019-04-07T04:04:30.114Z,99.90
2019-04-07T04:07:17.113Z,99.90
2019-04-07T04:09:41.278Z,99.90
2019-04-07T04:12:12.652Z,99.90
2019-04-07T04:14:43.822Z,99.90
2019-04-07T04:17:13.233Z,99.90
2019-04-07T04:19:42.779Z,99.90
2019-04-07T04:22:14.168Z,99.90
2019-04-07T04:24:43.995Z,99.90
2019-04-07T04:27:14.858Z,99.90
2019-04-07T04:29:44.944Z,99.90
2019-04-07T04:32:16.671Z,99.90
2019-04-07T04:34:46.664Z,99.90
2019-04-07T04:37:26.792Z,99.90
2019-04-07T04:39:47.602Z,99.90
2019-04-07T04:42:18.645Z,99.90
2019-04-07T04:44:48.032Z,99.90
2019-04-07T04:47:17.569Z,99.90
2019-04-07T04:49:48.470Z,99.90
2019-04-07T04:52:18.172Z,99.90
2019-04-07T04:54:47.731Z,99.90
2019-04-07T04:57:17.776Z,99.90
2019-04-07T04:59:47.267Z,99.90
2019-04-07T05:02:18.078Z,99.90
2019-04-07T05:04:47.482Z,99.90
2019-04-07T05:07:19.030Z,99.90
2019-04-07T05:09:52.723Z,99.90
2019-04-07T05:12:19.655Z,99.90
2019-04-07T05:14:49.135Z,99.90
2019-04-07T05:17:19.956Z,99.90
2019-04-07T05:19:49.903Z,99.90
2019-04-07T05:22:19.671Z,99.90
2019-04-07T05:24:50.388Z,99.90
2019-04-07T05:27:20.154Z,99.90
2019-04-07T05:29:49.662Z,99.90
2019-04-07T05:32:19.266Z,99.90
2019-04-07T05:34:48.885Z,99.90
2019-04-07T05:37:18.828Z,99.90
2019-04-07T05:39:48.416Z,99.90
2019-04-07T05:42:17.825Z,99.90
2019-04-07T05:44:47.618Z,99.90
2019-04-07T05:47:17.730Z,99.90
2019-04-07T05:49:47.710Z,99.90
2019-04-07T05:52:17.246Z,99.90
2019-04-07T05:54:49.586Z,99.90
2019-04-07T05:57:17.739Z,99.90
2019-04-07T05:59:47.343Z,99.90
2019-04-07T06:02:18.872Z,99.90
2019-04-07T06:04:49.200Z,99.90
2019-04-07T06:07:20.311Z,99.90
2019-04-07T06:09:51.269Z,99.90
2019-04-07T06:12:21.512Z,99.90
2019-04-07T06:14:50.975Z,99.90
2019-04-07T06:17:25.645Z,99.90
2019-04-07T06:19:53.327Z,99.90
2019-04-07T06:22:24.637Z,99.90
2019-04-07T06:24:54.774Z,99.90
2019-04-07T06:27:24.208Z,99.90
2019-04-07T06:29:57.183Z,99.90
2019-04-07T06:32:26.719Z,99.90
2019-04-07T06:34:56.169Z,99.90
2019-04-07T06:37:27.816Z,99.90
2019-04-07T06:39:56.948Z,99.90
2019-04-07T06:42:29.028Z,99.90
2019-04-07T06:45:00.367Z,99.90
2019-04-07T06:47:39.803Z,99.90
2019-04-07T06:50:15.651Z,99.90
2019-04-07T06:53:10.611Z,99.90
2019-04-07T06:56:00.085Z,99.90
2019-04-07T06:58:38.800Z,99.90
2019-04-07T07:01:26.473Z,99.90
2019-04-07T07:04:10.921Z,99.90
2019-04-07T07:06:40.629Z,99.90
2019-04-07T07:09:21.105Z,99.90
2019-04-07T07:12:01.659Z,99.90
2019-04-07T07:14:40.495Z,99.90
2019-04-07T07:17:21.068Z,99.90
2019-04-07T07:20:05.316Z,99.90
2019-04-07T07:22:47.704Z,99.90
2019-04-07T07:25:17.053Z,99.90
2019-04-07T07:27:47.842Z,99.90
2019-04-07T07:30:18.376Z,99.90
2019-04-07T07:32:49.737Z,99.90
2019-04-07T07:35:19.235Z,99.90
2019-04-07T07:37:49.990Z,99.90
2019-04-07T07:40:19.469Z,99.90
2019-04-07T07:42:51.042Z,99.90
2019-04-07T07:45:20.586Z,99.90
2019-04-07T07:47:53.227Z,99.90
2019-04-07T07:50:22.288Z,99.90
2019-04-07T07:52:54.411Z,99.90
2019-04-07T07:55:22.830Z,99.90
2019-04-07T07:57:56.472Z,99.90
2019-04-07T08:00:24.639Z,99.90
2019-04-07T08:02:54.688Z,99.90
2019-04-07T08:05:24.829Z,99.90
2019-04-07T08:07:55.121Z,99.90
2019-04-07T08:10:26.885Z,99.90
2019-04-07T08:12:58.590Z,98.70
2019-04-07T08:15:32.136Z,98.40
2019-04-07T08:18:03.176Z,96.70
2019-04-07T08:20:30.644Z,93.90
2019-04-07T08:23:00.673Z,92.70
2019-04-07T08:25:30.254Z,93.70
2019-04-07T08:28:02.174Z,92.60
2019-04-07T08:30:32.823Z,92.60
2019-04-07T08:33:03.419Z,90.90
2019-04-07T08:35:38.179Z,91.20
2019-04-07T08:38:05.698Z,87.30
2019-04-07T08:40:36.890Z,85.90
2019-04-07T08:43:07.143Z,84.30
2019-04-07T08:45:38.135Z,82.10
2019-04-07T08:48:08.932Z,77.60
2019-04-07T08:50:39.896Z,78.50
2019-04-07T08:53:12.296Z,77.10
2019-04-07T08:55:40.600Z,74.10
2019-04-07T08:58:10.117Z,70.60
2019-04-07T09:00:48.804Z,67.20
2019-04-07T09:03:17.096Z,70.50
2019-04-07T09:05:47.893Z,72.80
2019-04-07T09:08:17.959Z,71.50
2019-04-07T09:10:54.965Z,65.60
2019-04-07T09:13:25.095Z,63.80
2019-04-07T09:16:08.271Z,68.20
2019-04-07T09:19:02.533Z,66.20
2019-04-07T09:21:47.541Z,64.60
2019-04-07T09:24:34.235Z,59.80
2019-04-07T09:27:23.256Z,58.50
2019-04-07T09:30:02.656Z,57.10
2019-04-07T09:32:44.868Z,55.70
2019-04-07T09:35:22.754Z,56.90
2019-04-07T09:37:55.986Z,60.20
2019-04-07T09:40:27.815Z,60.20
2019-04-07T09:43:01.702Z,58.40
2019-04-07T09:45:33.382Z,56.70
2019-04-07T09:48:13.700Z,56.20
2019-04-07T09:51:05.681Z,54.10
2019-04-07T09:53:37.077Z,54.80
2019-04-07T09:56:31.408Z,55.90
2019-04-07T09:59:03.519Z,54.10
2019-04-07T10:01:36.411Z,54.20
2019-04-07T10:04:13.356Z,52.10
2019-04-07T10:06:49.492Z,49.70
2019-04-07T10:09:32.219Z,51.60
2019-04-07T10:12:15.194Z,52.60
2019-04-07T10:14:49.805Z,52.60
2019-04-07T10:17:22.281Z,52.30
2019-04-07T10:20:02.336Z,51.50
2019-04-07T10:22:40.490Z,50.00
2019-04-07T10:25:11.998Z,48.20
2019-04-07T10:27:50.804Z,48.40
2019-04-07T10:30:24.867Z,47.20
2019-04-07T10:33:00.076Z,47.90
2019-04-07T10:35:37.219Z,46.20
2019-04-07T10:38:08.744Z,47.10
2019-04-07T10:40:46.581Z,45.10
2019-04-07T10:43:34.909Z,45.30
2019-04-07T10:46:22.630Z,44.40
2019-04-07T10:49:10.365Z,43.40
2019-04-07T10:51:54.712Z,44.90
2019-04-07T10:54:38.167Z,44.70
2019-04-07T10:57:23.153Z,44.30
2019-04-07T11:00:11.082Z,44.30
2019-04-07T11:03:02.106Z,46.40
2019-04-07T11:05:33.264Z,46.40
2019-04-07T11:08:23.246Z,46.90
2019-04-07T11:11:12.253Z,46.40
2019-04-07T11:13:52.178Z,47.10
2019-04-07T11:16:23.303Z,49.30
2019-04-07T11:19:12.941Z,50.30
2019-04-07T11:22:00.917Z,50.40
2019-04-07T11:24:32.427Z,50.50
2019-04-07T11:27:04.934Z,50.40
2019-04-07T11:29:38.322Z,50.80
2019-04-07T11:32:19.572Z,52.60
2019-04-07T11:34:59.615Z,53.30
2019-04-07T11:37:48.577Z,53.00
2019-04-07T11:40:25.636Z,52.90
2019-04-07T11:42:56.749Z,52.30
2019-04-07T11:45:37.692Z,53.10
2019-04-07T11:48:08.943Z,53.70
2019-04-07T11:50:40.710Z,52.60
2019-04-07T11:53:18.113Z,52.60
2019-04-07T11:56:10.222Z,51.40
2019-04-07T11:58:54.092Z,49.20
2019-04-07T12:01:29.349Z,47.40
2019-04-07T12:04:19.632Z,46.90
2019-04-07T12:07:08.927Z,46.40
2019-04-07T12:09:46.747Z,46.30
2019-04-07T12:12:35.609Z,48.40
2019-04-07T12:15:14.535Z,45.60
2019-04-07T12:18:02.128Z,48.40
2019-04-07T12:20:34.795Z,50.30
2019-04-07T12:23:15.910Z,50.50
2019-04-07T12:25:52.679Z,49.80
2019-04-07T12:28:26.837Z,49.10
2019-04-07T12:31:10.303Z,48.80
2019-04-07T12:33:53.790Z,49.40
2019-04-07T12:36:28.854Z,48.70
2019-04-07T12:38:58.934Z,48.00
2019-04-07T12:41:45.316Z,48.10
2019-04-07T12:44:35.415Z,48.70
2019-04-07T12:47:19.593Z,48.00
2019-04-07T12:49:53.795Z,48.40
2019-04-07T12:52:30.669Z,48.30
2019-04-07T12:55:18.059Z,48.30
2019-04-07T12:58:11.666Z,44.70
2019-04-07T13:00:57.136Z,45.10
2019-04-07T13:03:23.262Z,46.10
2019-04-07T13:05:55.257Z,46.10
2019-04-07T13:08:44.958Z,46.00
2019-04-07T13:11:25.390Z,46.00
2019-04-07T13:13:56.104Z,47.00
2019-04-07T13:16:30.507Z,47.00
2019-04-07T13:19:02.274Z,48.40
2019-04-07T13:21:41.435Z,48.80
2019-04-07T13:24:30.482Z,49.50
2019-04-07T13:27:10.294Z,50.20
2019-04-07T13:29:41.585Z,51.00
2019-04-07T13:32:21.875Z,50.20
2019-04-07T13:35:08.007Z,51.40
2019-04-07T13:37:55.508Z,51.20
2019-04-07T13:40:26.787Z,50.50
2019-04-07T13:43:03.872Z,50.00
2019-04-07T13:45:53.511Z,51.10
2019-04-07T13:48:30.081Z,50.70
2019-04-07T13:51:05.192Z,51.10
2019-04-07T13:53:52.395Z,51.30
2019-04-07T13:56:24.273Z,50.40
2019-04-07T13:59:11.572Z,49.90
2019-04-07T14:01:52.442Z,49.80
2019-04-07T14:04:21.713Z,51.00
2019-04-07T14:06:59.615Z,50.60
2019-04-07T14:09:32.311Z,51.10
2019-04-07T14:12:14.271Z,51.70
2019-04-07T14:15:00.552Z,51.50
2019-04-07T14:17:36.308Z,52.60
2019-04-07T14:20:17.062Z,53.90
2019-04-07T14:22:53.061Z,55.00
2019-04-07T14:25:27.916Z,55.40
2019-04-07T14:28:12.902Z,55.60
2019-04-07T14:30:56.341Z,55.30
2019-04-07T14:33:44.479Z,54.80
2019-04-07T14:36:32.631Z,54.90
2019-04-07T14:39:04.129Z,55.30
2019-04-07T14:41:39.467Z,55.80
2019-04-07T14:44:10.550Z,55.80
2019-04-07T14:46:49.007Z,56.40
2019-04-07T14:49:20.198Z,56.60
2019-04-07T14:51:53.338Z,56.20
2019-04-07T14:54:27.140Z,55.70
2019-04-07T14:57:09.455Z,56.80
2019-04-07T14:59:52.113Z,56.70
2019-04-07T15:02:22.659Z,58.20
2019-04-07T15:04:54.341Z,57.90
2019-04-07T15:07:43.981Z,58.10
2019-04-07T15:10:16.925Z,57.90
2019-04-07T15:12:55.693Z,58.60
2019-04-07T15:15:25.246Z,57.50
2019-04-07T15:17:55.041Z,57.80
2019-04-07T15:20:25.061Z,57.80
2019-04-07T15:22:54.465Z,58.20
2019-04-07T15:25:24.696Z,58.30
2019-04-07T15:27:57.732Z,59.20
2019-04-07T15:30:26.550Z,59.50
2019-04-07T15:33:00.207Z,59.10
2019-04-07T15:35:27.570Z,59.40
2019-04-07T15:37:57.250Z,59.60
2019-04-07T15:40:26.691Z,60.40
2019-04-07T15:42:56.889Z,61.10
2019-04-07T15:45:26.676Z,61.70
2019-04-07T15:47:56.450Z,62.40
2019-04-07T15:50:30.139Z,62.90
2019-04-07T15:52:59.523Z,62.80
2019-04-07T15:55:43.217Z,63.40
2019-04-07T15:58:02.003Z,63.30
2019-04-07T16:00:35.158Z,63.00
2019-04-07T16:03:04.313Z,64.00
2019-04-07T16:05:41.058Z,64.50
2019-04-07T16:08:05.096Z,65.20
2019-04-07T16:10:34.815Z,64.90
2019-04-07T16:13:04.705Z,64.60
2019-04-07T16:15:36.136Z,65.10
2019-04-07T16:18:07.306Z,64.70
2019-04-07T16:20:40.247Z,65.30
2019-04-07T16:23:09.001Z,65.20
2019-04-07T16:25:40.416Z,65.30
2019-04-07T16:28:13.134Z,65.20
2019-04-07T16:30:42.654Z,64.70
2019-04-07T16:33:12.338Z,65.50
2019-04-07T16:35:43.591Z,64.80
2019-04-07T16:38:13.008Z,64.40
2019-04-07T16:40:44.634Z,64.90
2019-04-07T16:43:17.366Z,64.40
2019-04-07T16:45:47.174Z,63.70
2019-04-07T16:48:16.701Z,64.40
2019-04-07T16:50:51.827Z,64.60
2019-04-07T16:53:18.606Z,65.80
2019-04-07T16:55:53.727Z,65.50
2019-04-07T16:58:21.206Z,66.70
2019-04-07T17:00:51.422Z,66.90
2019-04-07T17:03:21.622Z,67.50
2019-04-07T17:05:55.942Z,67.70
2019-04-07T17:08:24.732Z,68.10
2019-04-07T17:10:54.542Z,70.20
2019-04-07T17:13:32.589Z,70.80
2019-04-07T17:15:57.145Z,72.20
2019-04-07T17:18:39.120Z,72.50
2019-04-07T17:21:14.409Z,72.60
2019-04-07T17:23:44.165Z,73.80
2019-04-07T17:26:13.750Z,75.50
2019-04-07T17:28:45.226Z,74.80
2019-04-07T17:31:15.667Z,75.50
2019-04-07T17:33:45.708Z,76.20
2019-04-07T17:36:19.676Z,76.10
2019-04-07T17:39:08.218Z,77.20
2019-04-07T17:41:37.863Z,78.10
2019-04-07T17:44:13.137Z,79.10
2019-04-07T17:46:42.772Z,80.70
2019-04-07T17:49:14.646Z,81.70
2019-04-07T17:52:00.872Z,82.40
2019-04-07T17:54:32.447Z,84.20
2019-04-07T17:57:10.571Z,84.20
2019-04-07T17:59:44.793Z,86.00
2019-04-07T18:02:28.685Z,86.50
2019-04-07T18:04:59.099Z,86.20
2019-04-07T18:07:34.142Z,87.60
2019-04-07T18:10:23.760Z,88.90
2019-04-07T18:13:04.091Z,90.10
2019-04-07T18:15:51.523Z,91.30
2019-04-07T18:18:38.879Z,91.90
2019-04-07T18:21:15.746Z,92.40
2019-04-07T18:23:47.206Z,93.30
2019-04-07T18:26:21.787Z,94.30
2019-04-07T18:29:04.684Z,95.10
2019-04-07T18:31:40.127Z,95.80
2019-04-07T18:34:14.314Z,96.70
2019-04-07T18:36:52.194Z,97.90
2019-04-07T18:39:24.083Z,98.30
2019-04-07T18:42:17.789Z,99.30
2019-04-07T18:44:47.043Z,99.90
2019-04-07T18:47:33.712Z,99.90
2019-04-07T18:50:21.979Z,99.90
2019-04-07T18:53:03.618Z,99.90
2019-04-07T18:55:37.214Z,99.90
2019-04-07T18:58:08.440Z,99.90
2019-04-07T19:00:56.502Z,99.90
2019-04-07T19:03:43.744Z,99.90
2019-04-07T19:06:16.627Z,99.90
2019-04-07T19:08:54.396Z,99.90
2019-04-07T19:11:27.629Z,99.90
2019-04-07T19:14:24.553Z,99.90
2019-04-07T19:16:52.329Z,99.90
2019-04-07T19:19:39.805Z,99.90
2019-04-07T19:22:26.470Z,99.90
2019-04-07T19:25:05.106Z,99.90
2019-04-07T19:27:50.814Z,99.90
2019-04-07T19:30:34.305Z,99.90
2019-04-07T19:33:12.163Z,99.90
2019-04-07T19:35:44.671Z,99.90
2019-04-07T19:38:20.967Z,99.90
2019-04-07T19:41:04.673Z,99.90
2019-04-07T19:43:36.034Z,99.90
2019-04-07T19:46:27.151Z,99.90
2019-04-07T19:49:02.958Z,99.90
2019-04-07T19:51:41.648Z,99.90
2019-04-07T19:54:29.282Z,99.90
2019-04-07T19:57:18.247Z,99.90
2019-04-07T20:00:05.371Z,99.90
2019-04-07T20:02:39.054Z,99.90
2019-04-07T20:05:19.700Z,99.90
2019-04-07T20:07:59.339Z,99.90
2019-04-07T20:10:49.861Z,99.90
2019-04-07T20:13:21.973Z,99.90
2019-04-07T20:15:56.179Z,99.90
2019-04-07T20:18:43.798Z,99.90
2019-04-07T20:21:39.240Z,99.90
2019-04-07T20:24:05.909Z,99.90
2019-04-07T20:26:38.222Z,99.90
2019-04-07T20:29:12.086Z,99.90
2019-04-07T20:32:00.433Z,99.90
2019-04-07T20:34:40.405Z,99.90
2019-04-07T20:37:10.984Z,99.90
2019-04-07T20:39:56.262Z,99.90
2019-04-07T20:42:34.658Z,99.90
2019-04-07T20:45:20.026Z,99.90
2019-04-07T20:47:51.381Z,99.90
2019-04-07T20:50:37.684Z,99.90
2019-04-07T20:53:29.051Z,99.90
2019-04-07T20:56:09.400Z,99.90
2019-04-07T20:58:57.661Z,99.90
2019-04-07T21:01:53.925Z,99.90
2019-04-07T21:04:28.816Z,99.90
2019-04-07T21:07:11.811Z,99.90
2019-04-07T21:09:43.834Z,99.90
2019-04-07T21:12:15.962Z,99.90
2019-04-07T21:14:47.403Z,99.90
2019-04-07T21:17:35.735Z,99.90
2019-04-07T21:20:11.111Z,99.90
2019-04-07T21:22:52.627Z,99.90
2019-04-07T21:25:27.535Z,99.90
2019-04-07T21:27:58.767Z,99.90
2019-04-07T21:30:37.250Z,99.90
2019-04-07T21:33:11.171Z,99.90
2019-04-07T21:35:59.987Z,99.90
2019-04-07T21:38:46.238Z,99.90
2019-04-07T21:41:24.446Z,99.90
2019-04-07T21:44:04.423Z,99.90
2019-04-07T21:46:35.497Z,99.90
2019-04-07T21:49:25.771Z,99.90
2019-04-07T21:52:01.129Z,99.90
2019-04-07T21:54:38.677Z,99.90
2019-04-07T21:57:09.905Z,99.90
2019-04-07T21:59:59.015Z,99.90
2019-04-07T22:02:29.998Z,99.90
2019-04-07T22:05:01.108Z,99.90
2019-04-07T22:07:49.936Z,99.90
2019-04-07T22:10:20.741Z,99.90
2019-04-07T22:12:51.974Z,99.90
2019-04-07T22:15:21.511Z,99.90
2019-04-07T22:17:54.224Z,99.90
2019-04-07T22:20:23.815Z,99.90
2019-04-07T22:22:54.333Z,99.90
2019-04-07T22:25:30.481Z,99.90
2019-04-07T22:28:00.016Z,99.90
2019-04-07T22:30:29.422Z,99.90
2019-04-07T22:32:59.757Z,99.90
2019-04-07T22:35:31.927Z,99.90
2019-04-07T22:38:01.628Z,99.90
2019-04-07T22:40:34.240Z,99.90
2019-04-07T22:43:03.737Z,99.90
2019-04-07T22:45:33.188Z,99.90
2019-04-07T22:48:03.491Z,99.90
2019-04-07T22:50:37.194Z,99.90
2019-04-07T22:53:04.110Z,99.90
2019-04-07T22:55:35.940Z,99.90
2019-04-07T22:58:05.394Z,99.90
2019-04-07T23:00:35.157Z,99.90
2019-04-07T23:03:05.744Z,99.90
2019-04-07T23:05:35.243Z,99.90
2019-04-07T23:08:04.692Z,99.90
2019-04-07T23:10:34.162Z,99.90
2019-04-07T23:13:03.704Z,99.90
2019-04-07T23:15:41.635Z,99.90
2019-04-07T23:18:05.355Z,99.90
2019-04-07T23:20:35.526Z,99.90
2019-04-07T23:23:05.219Z,99.90
2019-04-07T23:25:34.726Z,99.90
2019-04-07T23:28:04.142Z,99.90
2019-04-07T23:30:35.463Z,99.90
2019-04-07T23:33:05.033Z,99.90
2019-04-07T23:35:35.812Z,99.90
2019-04-07T23:38:05.798Z,99.90
2019-04-07T23:40:37.697Z,99.90
2019-04-07T23:43:07.309Z,99.90
2019-04-07T23:45:38.015Z,99.90
2019-04-07T23:48:08.293Z,99.90
2019-04-07T23:50:37.831Z,99.90
2019-04-07T23:53:43.494Z,99.90
2019-04-07T23:56:14.406Z,99.90
2019-04-07T23:58:43.807Z,99.90
